PSRDR SBPS-SBMK
Flight info
| Callsign | PSRDR |
|---|---|
| Flight time | N/A |
| Altitude | 38000 |
| Route | MUKOS DCT UBNED DCT MK001 |
| Aircraft | CL60/M-SBDE1E2E3FGHIJ4J5J7M3RWXYZ/LB1V1D1 |
Departure
| Time | 2026-05-04 00:29 |
|---|---|
| Airport | Porto Seguro International Airport (SBPS) |
Arrival
| Time | N/A |
|---|---|
| Airport | Mário Ribeiro Airport (SBMK) |
| Time | Latitude | Longitude | Altitude | Speed | Heading |
|---|---|---|---|---|---|
| 2026-05-04 00:01 | -16.43833 | -39.07567 | 155 ft | 0 kts | 161° |
| 2026-05-04 00:07 | -16.43833 | -39.07566 | 155 ft | 0 kts | 162° |
| 2026-05-04 00:24 | -16.43835 | -39.07565 | 155 ft | 2 kts | 163° |
| 2026-05-04 00:24 | -16.43864 | -39.07586 | 156 ft | 7 kts | 252° |
| 2026-05-04 00:24 | -16.43837 | -39.07643 | 156 ft | 6 kts | 340° |
| 2026-05-04 00:25 | -16.43828 | -39.07646 | 156 ft | 0 kts | 342° |
| 2026-05-04 00:28 | -16.43802 | -39.07654 | 156 ft | 7 kts | 343° |
| 2026-05-04 00:29 | -16.43749 | -39.07678 | 156 ft | 8 kts | 287° |
| 2026-05-04 00:29 | -16.43782 | -39.07811 | 158 ft | 52 kts | 254° |
| 2026-05-04 00:29 | -16.43981 | -39.08550 | 169 ft | 152 kts | 254° |
| 2026-05-04 00:29 | -16.44268 | -39.09757 | 792 ft | 185 kts | 256° |
| 2026-05-04 00:30 | -16.44565 | -39.11053 | 1948 ft | 195 kts | 251° |
| 2026-05-04 00:30 | -16.44837 | -39.12437 | 3125 ft | 210 kts | 262° |
| 2026-05-04 00:30 | -16.44913 | -39.14012 | 4049 ft | 238 kts | 264° |
| 2026-05-04 00:30 | -16.44985 | -39.15847 | 4822 ft | 269 kts | 264° |
| 2026-05-04 00:31 | -16.45063 | -39.17816 | 5951 ft | 283 kts | 265° |
| 2026-05-04 00:31 | -16.45146 | -39.19869 | 7259 ft | 289 kts | 265° |
| 2026-05-04 00:31 | -16.45233 | -39.21946 | 8528 ft | 295 kts | 265° |
| 2026-05-04 00:32 | -16.45403 | -39.25706 | 10648 ft | 304 kts | 265° |
| 2026-05-04 00:32 | -16.45507 | -39.27896 | 11746 ft | 311 kts | 266° |
| 2026-05-04 00:32 | -16.45606 | -39.30166 | 12653 ft | 323 kts | 266° |
| 2026-05-04 00:32 | -16.45713 | -39.32563 | 13203 ft | 345 kts | 266° |
| 2026-05-04 00:33 | -16.45827 | -39.35087 | 13968 ft | 357 kts | 266° |
| 2026-05-04 00:33 | -16.46064 | -39.40287 | 15776 ft | 366 kts | 266° |
| 2026-05-04 00:33 | -16.46185 | -39.42927 | 16690 ft | 369 kts | 266° |
| 2026-05-04 00:34 | -16.46308 | -39.45596 | 17583 ft | 371 kts | 266° |
| 2026-05-04 00:34 | -16.46431 | -39.48275 | 18442 ft | 374 kts | 267° |
| 2026-05-04 00:34 | -16.46557 | -39.51004 | 19296 ft | 377 kts | 267° |
| 2026-05-04 00:34 | -16.46682 | -39.53715 | 20107 ft | 379 kts | 267° |
| 2026-05-04 00:35 | -16.46809 | -39.56456 | 20861 ft | 383 kts | 267° |
| 2026-05-04 00:35 | -16.46938 | -39.59246 | 21614 ft | 386 kts | 267° |
| 2026-05-04 00:35 | -16.47066 | -39.62021 | 22335 ft | 389 kts | 268° |
| 2026-05-04 00:35 | -16.47198 | -39.64866 | 23035 ft | 393 kts | 268° |
| 2026-05-04 00:36 | -16.47329 | -39.67718 | 23721 ft | 397 kts | 268° |
| 2026-05-04 00:36 | -16.47463 | -39.70630 | 24430 ft | 400 kts | 268° |
| 2026-05-04 00:36 | -16.47594 | -39.73486 | 25087 ft | 403 kts | 268° |
| 2026-05-04 00:36 | -16.47729 | -39.76427 | 25745 ft | 406 kts | 268° |
| 2026-05-04 00:37 | -16.47865 | -39.79397 | 26366 ft | 409 kts | 268° |
| 2026-05-04 00:37 | -16.48000 | -39.82351 | 26935 ft | 413 kts | 268° |
| 2026-05-04 00:37 | -16.48137 | -39.85354 | 27506 ft | 416 kts | 268° |
| 2026-05-04 00:37 | -16.48276 | -39.88404 | 28069 ft | 419 kts | 268° |
| 2026-05-04 00:38 | -16.48413 | -39.91434 | 28589 ft | 423 kts | 268° |
| 2026-05-04 00:38 | -16.48553 | -39.94530 | 29113 ft | 426 kts | 268° |
| 2026-05-04 00:38 | -16.48694 | -39.97660 | 29632 ft | 428 kts | 268° |
| 2026-05-04 00:38 | -16.48836 | -40.00802 | 30160 ft | 430 kts | 268° |
| 2026-05-04 00:39 | -16.48977 | -40.03960 | 30683 ft | 431 kts | 268° |
| 2026-05-04 00:39 | -16.49120 | -40.07151 | 31169 ft | 432 kts | 268° |
| 2026-05-04 00:39 | -16.49262 | -40.10338 | 31637 ft | 434 kts | 268° |
| 2026-05-04 00:39 | -16.49405 | -40.13569 | 32053 ft | 436 kts | 268° |
| 2026-05-04 00:40 | -16.49546 | -40.16751 | 32429 ft | 438 kts | 268° |
| 2026-05-04 00:40 | -16.49688 | -40.19966 | 32804 ft | 439 kts | 268° |
| 2026-05-04 00:40 | -16.49828 | -40.23160 | 33183 ft | 441 kts | 268° |
| 2026-05-04 00:40 | -16.49970 | -40.26398 | 33538 ft | 443 kts | 268° |
| 2026-05-04 00:41 | -16.50113 | -40.29660 | 33836 ft | 445 kts | 268° |
| 2026-05-04 00:41 | -16.50254 | -40.32892 | 34199 ft | 445 kts | 268° |
| 2026-05-04 00:41 | -16.50394 | -40.36129 | 34621 ft | 444 kts | 268° |
| 2026-05-04 00:41 | -16.50536 | -40.39395 | 35110 ft | 441 kts | 268° |
| 2026-05-04 00:42 | -16.50674 | -40.42607 | 35554 ft | 439 kts | 268° |
| 2026-05-04 00:42 | -16.50811 | -40.45793 | 35997 ft | 437 kts | 268° |
| 2026-05-04 00:42 | -16.50946 | -40.48951 | 36380 ft | 435 kts | 268° |
| 2026-05-04 00:42 | -16.51080 | -40.52105 | 36724 ft | 434 kts | 268° |
| 2026-05-04 00:43 | -16.51216 | -40.55290 | 37014 ft | 434 kts | 268° |
| 2026-05-04 00:43 | -16.51316 | -40.57666 | 37246 ft | 434 kts | 268° |
| 2026-05-04 00:43 | -16.51448 | -40.60799 | 37535 ft | 433 kts | 268° |
| 2026-05-04 00:43 | -16.51582 | -40.63976 | 37804 ft | 433 kts | 268° |
| 2026-05-04 00:44 | -16.51713 | -40.67103 | 38071 ft | 432 kts | 268° |
| 2026-05-04 00:44 | -16.51977 | -40.73442 | 38157 ft | 437 kts | 268° |
| 2026-05-04 00:45 | -16.52238 | -40.79758 | 38164 ft | 436 kts | 268° |
| 2026-05-04 00:45 | -16.52500 | -40.86125 | 38166 ft | 434 kts | 268° |
| 2026-05-04 00:46 | -16.52739 | -40.91991 | 38169 ft | 434 kts | 268° |
| 2026-05-04 00:46 | -16.52960 | -40.97434 | 38172 ft | 434 kts | 268° |
| 2026-05-04 00:47 | -16.53212 | -41.03702 | 38166 ft | 434 kts | 268° |
| 2026-05-04 00:47 | -16.53465 | -41.10024 | 38161 ft | 434 kts | 268° |
| 2026-05-04 00:48 | -16.53714 | -41.16310 | 38145 ft | 433 kts | 268° |
| 2026-05-04 00:48 | -16.53962 | -41.22620 | 38143 ft | 433 kts | 268° |
| 2026-05-04 00:49 | -16.54206 | -41.28873 | 38139 ft | 432 kts | 268° |
| 2026-05-04 00:49 | -16.54449 | -41.35143 | 38129 ft | 433 kts | 268° |
| 2026-05-04 00:50 | -16.54690 | -41.41401 | 38137 ft | 433 kts | 268° |
| 2026-05-04 00:50 | -16.54930 | -41.47684 | 38148 ft | 433 kts | 268° |
| 2026-05-04 00:51 | -16.55168 | -41.53965 | 38135 ft | 434 kts | 268° |
| 2026-05-04 00:51 | -16.55407 | -41.60329 | 38139 ft | 433 kts | 268° |
| 2026-05-04 00:52 | -16.55642 | -41.66656 | 38142 ft | 433 kts | 268° |
| 2026-05-04 00:52 | -16.55875 | -41.72945 | 38131 ft | 433 kts | 268° |
| 2026-05-04 00:53 | -16.56107 | -41.79288 | 38140 ft | 433 kts | 268° |
| 2026-05-04 00:53 | -16.56337 | -41.85596 | 38151 ft | 433 kts | 268° |
| 2026-05-04 00:54 | -16.56565 | -41.91919 | 38154 ft | 432 kts | 268° |
| 2026-05-04 00:54 | -16.56789 | -41.98167 | 38168 ft | 432 kts | 268° |
| 2026-05-04 00:55 | -16.57012 | -42.04448 | 38163 ft | 433 kts | 268° |
| 2026-05-04 00:55 | -16.57234 | -42.10765 | 38163 ft | 433 kts | 268° |
| 2026-05-04 00:56 | -16.57453 | -42.17034 | 38150 ft | 433 kts | 268° |
| 2026-05-04 00:56 | -16.57670 | -42.23311 | 38150 ft | 429 kts | 268° |
| 2026-05-04 00:57 | -16.57885 | -42.29555 | 38146 ft | 427 kts | 268° |
| 2026-05-04 00:57 | -16.57991 | -42.32675 | 37728 ft | 434 kts | 268° |
| 2026-05-04 00:57 | -16.58097 | -42.35821 | 37119 ft | 433 kts | 268° |
| 2026-05-04 00:57 | -16.58202 | -42.38913 | 36515 ft | 432 kts | 268° |
| 2026-05-04 00:58 | -16.58282 | -42.42103 | 35880 ft | 431 kts | 269° |
| 2026-05-04 00:58 | -16.58302 | -42.45249 | 35327 ft | 432 kts | 269° |
| 2026-05-04 00:58 | -16.58320 | -42.48383 | 34730 ft | 433 kts | 269° |
| 2026-05-04 00:58 | -16.58338 | -42.51543 | 34155 ft | 434 kts | 269° |
| 2026-05-04 00:59 | -16.58356 | -42.54684 | 33587 ft | 436 kts | 269° |
| 2026-05-04 00:59 | -16.58373 | -42.57817 | 33021 ft | 435 kts | 269° |
| 2026-05-04 00:59 | -16.58391 | -42.60980 | 32465 ft | 432 kts | 269° |
| 2026-05-04 00:59 | -16.58407 | -42.64087 | 31872 ft | 431 kts | 269° |
| 2026-05-04 01:00 | -16.58424 | -42.67215 | 31307 ft | 429 kts | 270° |
| 2026-05-04 01:00 | -16.58441 | -42.70336 | 30733 ft | 427 kts | 270° |
| 2026-05-04 01:00 | -16.58456 | -42.73418 | 30170 ft | 424 kts | 270° |
| 2026-05-04 01:00 | -16.58472 | -42.76491 | 29608 ft | 421 kts | 270° |
| 2026-05-04 01:01 | -16.58487 | -42.79521 | 29062 ft | 419 kts | 270° |
| 2026-05-04 01:01 | -16.58501 | -42.82571 | 28503 ft | 416 kts | 270° |
| 2026-05-04 01:01 | -16.58515 | -42.85558 | 27958 ft | 414 kts | 270° |
| 2026-05-04 01:01 | -16.58529 | -42.88551 | 27420 ft | 411 kts | 270° |
| 2026-05-04 01:02 | -16.58542 | -42.91534 | 26879 ft | 408 kts | 270° |
| 2026-05-04 01:02 | -16.58555 | -42.94471 | 26342 ft | 405 kts | 270° |
| 2026-05-04 01:02 | -16.58567 | -42.97402 | 25810 ft | 402 kts | 270° |
| 2026-05-04 01:02 | -16.58579 | -43.00326 | 25276 ft | 399 kts | 270° |
| 2026-05-04 01:03 | -16.58591 | -43.03231 | 24746 ft | 397 kts | 270° |
| 2026-05-04 01:03 | -16.58602 | -43.06107 | 24221 ft | 394 kts | 270° |
| 2026-05-04 01:03 | -16.58612 | -43.08936 | 23701 ft | 392 kts | 270° |
| 2026-05-04 01:03 | -16.58623 | -43.11801 | 23182 ft | 390 kts | 270° |
| 2026-05-04 01:04 | -16.58632 | -43.14619 | 22664 ft | 387 kts | 270° |
| 2026-05-04 01:04 | -16.58641 | -43.17418 | 22157 ft | 385 kts | 270° |
| 2026-05-04 01:04 | -16.58650 | -43.20190 | 21669 ft | 383 kts | 270° |
| 2026-05-04 01:04 | -16.58659 | -43.22945 | 21146 ft | 381 kts | 270° |
| 2026-05-04 01:05 | -16.58662 | -43.25684 | 20658 ft | 378 kts | 270° |
| 2026-05-04 01:05 | -16.58665 | -43.28109 | 20213 ft | 377 kts | 270° |
| 2026-05-04 01:05 | -16.58668 | -43.30252 | 19819 ft | 375 kts | 270° |
| 2026-05-04 01:05 | -16.58671 | -43.32528 | 19413 ft | 373 kts | 270° |
| 2026-05-04 01:06 | -16.58672 | -43.33300 | 19209 ft | 375 kts | 270° |
| 2026-05-04 01:06 | -16.58676 | -43.35813 | 18653 ft | 371 kts | 270° |
| 2026-05-04 01:06 | -16.58680 | -43.38470 | 18199 ft | 367 kts | 270° |
| 2026-05-04 01:06 | -16.58685 | -43.41134 | 17704 ft | 367 kts | 269° |
| 2026-05-04 01:07 | -16.58689 | -43.43780 | 17220 ft | 366 kts | 269° |
| 2026-05-04 01:07 | -16.58694 | -43.46416 | 16738 ft | 365 kts | 269° |
| 2026-05-04 01:07 | -16.58698 | -43.49093 | 16241 ft | 364 kts | 269° |
| 2026-05-04 01:07 | -16.58703 | -43.51712 | 15760 ft | 362 kts | 269° |
| 2026-05-04 01:08 | -16.58707 | -43.54319 | 15277 ft | 361 kts | 270° |
| 2026-05-04 01:08 | -16.58711 | -43.56920 | 14796 ft | 359 kts | 270° |
| 2026-05-04 01:08 | -16.58716 | -43.59507 | 14317 ft | 358 kts | 270° |
| 2026-05-04 01:08 | -16.58720 | -43.62106 | 13837 ft | 356 kts | 270° |
| 2026-05-04 01:09 | -16.58723 | -43.64648 | 13370 ft | 354 kts | 270° |
| 2026-05-04 01:09 | -16.58727 | -43.67221 | 12900 ft | 348 kts | 270° |
| 2026-05-04 01:09 | -16.58730 | -43.69731 | 12424 ft | 343 kts | 270° |
| 2026-05-04 01:09 | -16.58734 | -43.72205 | 11970 ft | 338 kts | 270° |
| 2026-05-04 01:10 | -16.58736 | -43.74649 | 11518 ft | 334 kts | 270° |
| 2026-05-04 01:10 | -16.58739 | -43.77047 | 11085 ft | 329 kts | 270° |
| 2026-05-04 01:10 | -16.58741 | -43.79428 | 10644 ft | 325 kts | 271° |
| 2026-05-04 01:10 | -16.58743 | -43.81744 | 10230 ft | 321 kts | 271° |
| 2026-05-04 01:11 | -16.58745 | -43.84084 | 9797 ft | 318 kts | 271° |
| 2026-05-04 01:11 | -16.58747 | -43.86346 | 9350 ft | 311 kts | 271° |
| 2026-05-04 01:11 | -16.58748 | -43.88567 | 8983 ft | 300 kts | 271° |
| 2026-05-04 01:11 | -16.58750 | -43.90715 | 8590 ft | 292 kts | 271° |
| 2026-05-04 01:12 | -16.58750 | -43.92801 | 8211 ft | 285 kts | 270° |
| 2026-05-04 01:12 | -16.58751 | -43.94854 | 7869 ft | 282 kts | 270° |
| 2026-05-04 01:12 | -16.58858 | -43.96895 | 7408 ft | 281 kts | 258° |
| 2026-05-04 01:12 | -16.59579 | -43.98760 | 6887 ft | 277 kts | 234° |
| 2026-05-04 01:13 | -16.60881 | -44.00167 | 6456 ft | 261 kts | 212° |
| 2026-05-04 01:13 | -16.62449 | -44.00943 | 5847 ft | 248 kts | 191° |
| 2026-05-04 01:13 | -16.64126 | -44.01104 | 5291 ft | 231 kts | 170° |
| 2026-05-04 01:13 | -16.65624 | -44.00818 | 5170 ft | 207 kts | 162° |
| 2026-05-04 01:14 | -16.66993 | -44.00474 | 4830 ft | 200 kts | 159° |
| 2026-05-04 01:14 | -16.68107 | -43.99779 | 4602 ft | 175 kts | 129° |
| 2026-05-04 01:14 | -16.68639 | -43.98761 | 4554 ft | 146 kts | 105° |
| 2026-05-04 01:14 | -16.68820 | -43.97796 | 4560 ft | 132 kts | 97° |
| 2026-05-04 01:15 | -16.68942 | -43.96794 | 4516 ft | 142 kts | 97° |
| 2026-05-04 01:15 | -16.69067 | -43.95758 | 4538 ft | 145 kts | 97° |
| 2026-05-04 01:15 | -16.69191 | -43.94709 | 4443 ft | 150 kts | 97° |
| 2026-05-04 01:15 | -16.69316 | -43.93650 | 4230 ft | 137 kts | 97° |
| 2026-05-04 01:16 | -16.69426 | -43.92703 | 4078 ft | 130 kts | 96° |
| 2026-05-04 01:16 | -16.69534 | -43.91765 | 3889 ft | 127 kts | 97° |
| 2026-05-04 01:16 | -16.69638 | -43.90870 | 3735 ft | 122 kts | 96° |
| 2026-05-04 01:16 | -16.69739 | -43.89992 | 3570 ft | 122 kts | 97° |
| 2026-05-04 01:17 | -16.69840 | -43.89108 | 3410 ft | 121 kts | 97° |
| 2026-05-04 01:17 | -16.69939 | -43.88254 | 3253 ft | 118 kts | 97° |
| 2026-05-04 01:17 | -16.70038 | -43.87400 | 3089 ft | 116 kts | 97° |
| 2026-05-04 01:17 | -16.70138 | -43.86537 | 2932 ft | 120 kts | 98° |
| 2026-05-04 01:18 | -16.70239 | -43.85673 | 2779 ft | 119 kts | 97° |
| 2026-05-04 01:18 | -16.70341 | -43.84804 | 2604 ft | 119 kts | 98° |
| 2026-05-04 01:18 | -16.70438 | -43.83946 | 2419 ft | 121 kts | 98° |
| 2026-05-04 01:18 | -16.70549 | -43.83074 | 2240 ft | 123 kts | 99° |
| 2026-05-04 01:19 | -16.70614 | -43.82612 | 2215 ft | 141 kts | 99° |
| 2026-05-04 01:19 | -16.70723 | -43.81723 | 2836 ft | 138 kts | 97° |
| 2026-05-04 01:19 | -16.70856 | -43.80486 | 3079 ft | 185 kts | 97° |
| 2026-05-04 01:19 | -16.70917 | -43.79908 | 3469 ft | 186 kts | 97° |